sensor_id;sensor_type;location;lat;lon;timestamp;temperature;humidity
65824;SHT31;52585;47.566;19.056;2023-03-11T00:00:35;11.54;67.82
65824;SHT31;52585;47.566;19.056;2023-03-11T00:03:05;11.52;67.72
65824;SHT31;52585;47.566;19.056;2023-03-11T00:05:34;11.48;67.82
65824;SHT31;52585;47.566;19.056;2023-03-11T00:08:03;11.43;67.56
65824;SHT31;52585;47.566;19.056;2023-03-11T00:10:31;11.39;67.44
65824;SHT31;52585;47.566;19.056;2023-03-11T00:13:04;11.37;67.29
65824;SHT31;52585;47.566;19.056;2023-03-11T00:15:32;11.35;67.45
65824;SHT31;52585;47.566;19.056;2023-03-11T00:17:59;11.33;67.30
65824;SHT31;52585;47.566;19.056;2023-03-11T00:20:29;11.31;67.46
65824;SHT31;52585;47.566;19.056;2023-03-11T00:22:58;11.28;67.61
65824;SHT31;52585;47.566;19.056;2023-03-11T00:25:25;11.26;67.33
65824;SHT31;52585;47.566;19.056;2023-03-11T00:27:54;11.25;67.38
65824;SHT31;52585;47.566;19.056;2023-03-11T00:30:21;11.23;67.33
65824;SHT31;52585;47.566;19.056;2023-03-11T00:32:49;11.22;67.17
65824;SHT31;52585;47.566;19.056;2023-03-11T00:35:22;11.22;66.98
65824;SHT31;52585;47.566;19.056;2023-03-11T00:37:53;11.24;66.94
65824;SHT31;52585;47.566;19.056;2023-03-11T00:40:24;11.24;66.82
65824;SHT31;52585;47.566;19.056;2023-03-11T00:42:53;11.25;66.46
65824;SHT31;52585;47.566;19.056;2023-03-11T00:45:19;11.26;66.56
65824;SHT31;52585;47.566;19.056;2023-03-11T00:47:45;11.25;66.44
65824;SHT31;52585;47.566;19.056;2023-03-11T00:50:18;11.23;66.00
65824;SHT31;52585;47.566;19.056;2023-03-11T00:52:48;11.23;65.72
65824;SHT31;52585;47.566;19.056;2023-03-11T00:55:16;11.23;65.47
65824;SHT31;52585;47.566;19.056;2023-03-11T00:57:47;11.22;65.34
65824;SHT31;52585;47.566;19.056;2023-03-11T01:00:18;11.23;65.50
65824;SHT31;52585;47.566;19.056;2023-03-11T01:02:46;11.20;65.07
65824;SHT31;52585;47.566;19.056;2023-03-11T01:05:12;11.19;65.13
65824;SHT31;52585;47.566;19.056;2023-03-11T01:07:39;11.16;64.92
65824;SHT31;52585;47.566;19.056;2023-03-11T01:10:06;11.15;64.86
65824;SHT31;52585;47.566;19.056;2023-03-11T01:12:33;11.13;64.85
65824;SHT31;52585;47.566;19.056;2023-03-11T01:14:59;11.11;64.74
65824;SHT31;52585;47.566;19.056;2023-03-11T01:17:24;11.10;64.76
65824;SHT31;52585;47.566;19.056;2023-03-11T01:19:50;11.08;64.61
65824;SHT31;52585;47.566;19.056;2023-03-11T01:22:16;11.07;64.53
65824;SHT31;52585;47.566;19.056;2023-03-11T01:24:42;11.06;64.48
65824;SHT31;52585;47.566;19.056;2023-03-11T01:27:11;11.05;64.49
65824;SHT31;52585;47.566;19.056;2023-03-11T01:29:37;11.06;64.48
65824;SHT31;52585;47.566;19.056;2023-03-11T01:32:02;11.05;64.63
65824;SHT31;52585;47.566;19.056;2023-03-11T01:34:28;11.02;64.52
65824;SHT31;52585;47.566;19.056;2023-03-11T01:36:54;10.99;64.31
65824;SHT31;52585;47.566;19.056;2023-03-11T01:39:19;11.02;64.39
65824;SHT31;52585;47.566;19.056;2023-03-11T01:41:45;11.01;64.51
65824;SHT31;52585;47.566;19.056;2023-03-11T01:44:11;11.00;64.51
65824;SHT31;52585;47.566;19.056;2023-03-11T01:49:19;10.94;64.54
65824;SHT31;52585;47.566;19.056;2023-03-11T01:51:47;10.91;64.56
65824;SHT31;52585;47.566;19.056;2023-03-11T01:54:36;10.89;64.35
65824;SHT31;52585;47.566;19.056;2023-03-11T01:57:06;10.87;64.21
65824;SHT31;52585;47.566;19.056;2023-03-11T01:59:38;10.87;64.15
65824;SHT31;52585;47.566;19.056;2023-03-11T02:02:20;10.84;64.16
65824;SHT31;52585;47.566;19.056;2023-03-11T02:05:01;10.78;64.09
65824;SHT31;52585;47.566;19.056;2023-03-11T02:07:28;10.78;64.02
65824;SHT31;52585;47.566;19.056;2023-03-11T02:09:54;10.78;64.02
65824;SHT31;52585;47.566;19.056;2023-03-11T02:12:20;10.76;63.83
65824;SHT31;52585;47.566;19.056;2023-03-11T02:14:46;10.74;63.75
65824;SHT31;52585;47.566;19.056;2023-03-11T02:17:16;10.71;63.61
65824;SHT31;52585;47.566;19.056;2023-03-11T02:22:25;10.67;63.41
65824;SHT31;52585;47.566;19.056;2023-03-11T02:25:05;10.64;62.96
65824;SHT31;52585;47.566;19.056;2023-03-11T02:27:42;10.64;63.09
65824;SHT31;52585;47.566;19.056;2023-03-11T02:30:16;10.65;62.97
65824;SHT31;52585;47.566;19.056;2023-03-11T02:32:43;10.64;62.74
65824;SHT31;52585;47.566;19.056;2023-03-11T02:35:12;10.64;62.69
65824;SHT31;52585;47.566;19.056;2023-03-11T02:37:46;10.62;62.55
65824;SHT31;52585;47.566;19.056;2023-03-11T02:42:46;10.61;62.18
65824;SHT31;52585;47.566;19.056;2023-03-11T02:45:13;10.60;62.30
65824;SHT31;52585;47.566;19.056;2023-03-11T02:47:44;10.58;61.98
65824;SHT31;52585;47.566;19.056;2023-03-11T02:50:11;10.57;61.81
65824;SHT31;52585;47.566;19.056;2023-03-11T02:52:40;10.55;61.82
65824;SHT31;52585;47.566;19.056;2023-03-11T02:55:07;10.53;61.22
65824;SHT31;52585;47.566;19.056;2023-03-11T02:57:36;10.53;61.32
65824;SHT31;52585;47.566;19.056;2023-03-11T03:00:03;10.51;60.99
65824;SHT31;52585;47.566;19.056;2023-03-11T03:02:37;10.48;60.92
65824;SHT31;52585;47.566;19.056;2023-03-11T03:05:03;10.47;60.74
65824;SHT31;52585;47.566;19.056;2023-03-11T03:07:30;10.46;60.62
65824;SHT31;52585;47.566;19.056;2023-03-11T03:09:56;10.44;60.28
65824;SHT31;52585;47.566;19.056;2023-03-11T03:12:21;10.43;60.44
65824;SHT31;52585;47.566;19.056;2023-03-11T03:14:47;10.44;60.30
65824;SHT31;52585;47.566;19.056;2023-03-11T03:17:13;10.42;59.99
65824;SHT31;52585;47.566;19.056;2023-03-11T03:19:38;10.40;59.70
65824;SHT31;52585;47.566;19.056;2023-03-11T03:22:04;10.38;59.80
65824;SHT31;52585;47.566;19.056;2023-03-11T03:24:30;10.37;59.76
65824;SHT31;52585;47.566;19.056;2023-03-11T03:26:55;10.37;59.84
65824;SHT31;52585;47.566;19.056;2023-03-11T03:29:21;10.36;59.79
65824;SHT31;52585;47.566;19.056;2023-03-11T03:31:47;10.35;59.90
65824;SHT31;52585;47.566;19.056;2023-03-11T03:34:13;10.33;59.76
65824;SHT31;52585;47.566;19.056;2023-03-11T03:36:38;10.33;59.66
65824;SHT31;52585;47.566;19.056;2023-03-11T03:39:04;10.32;58.92
65824;SHT31;52585;47.566;19.056;2023-03-11T03:41:30;10.31;58.98
65824;SHT31;52585;47.566;19.056;2023-03-11T03:43:56;10.32;58.49
65824;SHT31;52585;47.566;19.056;2023-03-11T03:46:22;10.32;58.02
65824;SHT31;52585;47.566;19.056;2023-03-11T03:48:48;10.31;57.44
65824;SHT31;52585;47.566;19.056;2023-03-11T03:51:13;10.29;56.85
65824;SHT31;52585;47.566;19.056;2023-03-11T03:53:40;10.25;56.36
65824;SHT31;52585;47.566;19.056;2023-03-11T03:56:07;10.24;56.39
65824;SHT31;52585;47.566;19.056;2023-03-11T03:58:39;10.21;56.15
65824;SHT31;52585;47.566;19.056;2023-03-11T04:01:05;10.18;55.97
65824;SHT31;52585;47.566;19.056;2023-03-11T04:03:32;10.16;55.83
65824;SHT31;52585;47.566;19.056;2023-03-11T04:08:47;10.10;55.45
65824;SHT31;52585;47.566;19.056;2023-03-11T04:11:16;10.07;55.27
65824;SHT31;52585;47.566;19.056;2023-03-11T04:13:41;10.04;55.23
65824;SHT31;52585;47.566;19.056;2023-03-11T04:16:09;10.03;55.55
65824;SHT31;52585;47.566;19.056;2023-03-11T04:18:41;10.02;55.30
65824;SHT31;52585;47.566;19.056;2023-03-11T04:21:07;9.98;55.13
65824;SHT31;52585;47.566;19.056;2023-03-11T04:23:32;9.95;55.21
65824;SHT31;52585;47.566;19.056;2023-03-11T04:25:59;9.93;55.39
65824;SHT31;52585;47.566;19.056;2023-03-11T04:28:25;9.89;55.11
65824;SHT31;52585;47.566;19.056;2023-03-11T04:30:51;9.87;54.77
65824;SHT31;52585;47.566;19.056;2023-03-11T04:33:17;9.85;54.96
65824;SHT31;52585;47.566;19.056;2023-03-11T04:35:43;9.82;54.95
65824;SHT31;52585;47.566;19.056;2023-03-11T04:38:08;9.80;54.59
65824;SHT31;52585;47.566;19.056;2023-03-11T04:40:35;9.77;54.34
65824;SHT31;52585;47.566;19.056;2023-03-11T04:43:02;9.72;53.90
65824;SHT31;52585;47.566;19.056;2023-03-11T04:45:28;9.69;52.74
65824;SHT31;52585;47.566;19.056;2023-03-11T04:47:53;9.64;52.18
65824;SHT31;52585;47.566;19.056;2023-03-11T04:50:19;9.57;51.37
65824;SHT31;52585;47.566;19.056;2023-03-11T04:52:45;9.50;51.00
65824;SHT31;52585;47.566;19.056;2023-03-11T04:55:12;9.44;50.70
65824;SHT31;52585;47.566;19.056;2023-03-11T04:57:39;9.39;50.57
65824;SHT31;52585;47.566;19.056;2023-03-11T05:00:06;9.33;50.17
65824;SHT31;52585;47.566;19.056;2023-03-11T05:02:36;9.26;50.20
65824;SHT31;52585;47.566;19.056;2023-03-11T05:05:07;9.23;50.36
65824;SHT31;52585;47.566;19.056;2023-03-11T05:07:34;9.18;50.28
65824;SHT31;52585;47.566;19.056;2023-03-11T05:10:03;9.14;50.12
65824;SHT31;52585;47.566;19.056;2023-03-11T05:12:49;9.11;50.43
65824;SHT31;52585;47.566;19.056;2023-03-11T05:15:18;9.06;50.63
65824;SHT31;52585;47.566;19.056;2023-03-11T05:17:45;9.02;50.41
65824;SHT31;52585;47.566;19.056;2023-03-11T05:20:11;9.01;50.50
65824;SHT31;52585;47.566;19.056;2023-03-11T05:22:37;8.95;50.46
65824;SHT31;52585;47.566;19.056;2023-03-11T05:25:03;8.93;50.52
65824;SHT31;52585;47.566;19.056;2023-03-11T05:27:30;8.90;50.44
65824;SHT31;52585;47.566;19.056;2023-03-11T05:29:56;8.88;49.84
65824;SHT31;52585;47.566;19.056;2023-03-11T05:32:22;8.82;49.66
65824;SHT31;52585;47.566;19.056;2023-03-11T05:34:47;8.78;49.14
65824;SHT31;52585;47.566;19.056;2023-03-11T05:37:13;8.70;48.85
65824;SHT31;52585;47.566;19.056;2023-03-11T05:39:39;8.64;48.99
65824;SHT31;52585;47.566;19.056;2023-03-11T05:42:06;8.60;48.96
65824;SHT31;52585;47.566;19.056;2023-03-11T05:44:32;8.58;49.11
65824;SHT31;52585;47.566;19.056;2023-03-11T05:46:59;8.53;49.03
65824;SHT31;52585;47.566;19.056;2023-03-11T05:49:25;8.48;49.06
65824;SHT31;52585;47.566;19.056;2023-03-11T05:51:51;8.43;49.09
65824;SHT31;52585;47.566;19.056;2023-03-11T05:54:18;8.41;49.08
65824;SHT31;52585;47.566;19.056;2023-03-11T05:56:44;8.36;48.91
65824;SHT31;52585;47.566;19.056;2023-03-11T05:59:14;8.30;48.81
65824;SHT31;52585;47.566;19.056;2023-03-11T06:01:41;8.27;48.78
65824;SHT31;52585;47.566;19.056;2023-03-11T06:04:08;8.24;48.24
65824;SHT31;52585;47.566;19.056;2023-03-11T06:06:37;8.19;48.54
65824;SHT31;52585;47.566;19.056;2023-03-11T06:09:05;8.17;48.42
65824;SHT31;52585;47.566;19.056;2023-03-11T06:11:31;8.13;48.48
65824;SHT31;52585;47.566;19.056;2023-03-11T06:13:57;8.09;48.58
65824;SHT31;52585;47.566;19.056;2023-03-11T06:16:23;8.07;48.20
65824;SHT31;52585;47.566;19.056;2023-03-11T06:18:50;8.05;48.39
65824;SHT31;52585;47.566;19.056;2023-03-11T06:21:17;8.02;48.44
65824;SHT31;52585;47.566;19.056;2023-03-11T06:23:46;8.00;48.39
65824;SHT31;52585;47.566;19.056;2023-03-11T06:26:13;7.98;48.12
65824;SHT31;52585;47.566;19.056;2023-03-11T06:28:42;7.96;47.97
65824;SHT31;52585;47.566;19.056;2023-03-11T06:31:10;7.94;48.39
65824;SHT31;52585;47.566;19.056;2023-03-11T06:33:43;7.93;48.21
65824;SHT31;52585;47.566;19.056;2023-03-11T06:36:11;7.92;48.43
65824;SHT31;52585;47.566;19.056;2023-03-11T06:38:38;7.93;48.60
65824;SHT31;52585;47.566;19.056;2023-03-11T06:41:05;7.91;48.46
65824;SHT31;52585;47.566;19.056;2023-03-11T06:43:32;7.90;48.37
65824;SHT31;52585;47.566;19.056;2023-03-11T06:45:59;7.90;48.23
65824;SHT31;52585;47.566;19.056;2023-03-11T06:48:31;7.90;48.33
65824;SHT31;52585;47.566;19.056;2023-03-11T06:50:57;7.89;47.97
65824;SHT31;52585;47.566;19.056;2023-03-11T06:53:25;7.87;47.73
65824;SHT31;52585;47.566;19.056;2023-03-11T06:58:32;7.81;47.67
65824;SHT31;52585;47.566;19.056;2023-03-11T07:01:01;7.80;47.56
65824;SHT31;52585;47.566;19.056;2023-03-11T07:03:33;7.80;47.58
65824;SHT31;52585;47.566;19.056;2023-03-11T07:05:59;7.79;47.63
65824;SHT31;52585;47.566;19.056;2023-03-11T07:08:25;7.79;47.77
65824;SHT31;52585;47.566;19.056;2023-03-11T07:11:02;7.78;47.69
65824;SHT31;52585;47.566;19.056;2023-03-11T07:13:31;7.78;47.79
65824;SHT31;52585;47.566;19.056;2023-03-11T07:16:02;7.76;47.83
65824;SHT31;52585;47.566;19.056;2023-03-11T07:18:43;7.74;48.08
65824;SHT31;52585;47.566;19.056;2023-03-11T07:21:10;7.74;48.22
65824;SHT31;52585;47.566;19.056;2023-03-11T07:23:40;7.74;48.26
65824;SHT31;52585;47.566;19.056;2023-03-11T07:26:08;7.74;48.02
65824;SHT31;52585;47.566;19.056;2023-03-11T07:28:36;7.72;48.12
65824;SHT31;52585;47.566;19.056;2023-03-11T07:31:06;7.71;48.06
65824;SHT31;52585;47.566;19.056;2023-03-11T07:33:41;7.71;48.09
65824;SHT31;52585;47.566;19.056;2023-03-11T07:36:07;7.72;48.17
65824;SHT31;52585;47.566;19.056;2023-03-11T07:38:36;7.71;48.07
65824;SHT31;52585;47.566;19.056;2023-03-11T07:41:03;7.72;47.76
65824;SHT31;52585;47.566;19.056;2023-03-11T07:43:30;7.74;47.94
65824;SHT31;52585;47.566;19.056;2023-03-11T07:48:33;7.85;47.55
65824;SHT31;52585;47.566;19.056;2023-03-11T07:51:12;7.86;47.54
65824;SHT31;52585;47.566;19.056;2023-03-11T07:53:42;7.87;47.33
65824;SHT31;52585;47.566;19.056;2023-03-11T07:56:08;7.84;47.20
65824;SHT31;52585;47.566;19.056;2023-03-11T07:58:36;7.81;47.16
65824;SHT31;52585;47.566;19.056;2023-03-11T08:01:20;7.80;46.91
65824;SHT31;52585;47.566;19.056;2023-03-11T08:03:49;7.78;46.68
65824;SHT31;52585;47.566;19.056;2023-03-11T08:06:25;7.79;46.93
65824;SHT31;52585;47.566;19.056;2023-03-11T08:08:55;7.78;46.83
65824;SHT31;52585;47.566;19.056;2023-03-11T08:11:27;7.79;46.59
65824;SHT31;52585;47.566;19.056;2023-03-11T08:13:55;7.78;46.84
65824;SHT31;52585;47.566;19.056;2023-03-11T08:16:22;7.76;46.65
65824;SHT31;52585;47.566;19.056;2023-03-11T08:18:48;7.76;46.45
65824;SHT31;52585;47.566;19.056;2023-03-11T08:21:17;7.77;46.71
65824;SHT31;52585;47.566;19.056;2023-03-11T08:23:55;7.78;46.57
65824;SHT31;52585;47.566;19.056;2023-03-11T08:26:23;7.77;46.75
65824;SHT31;52585;47.566;19.056;2023-03-11T08:28:49;7.76;46.87
65824;SHT31;52585;47.566;19.056;2023-03-11T08:31:19;7.75;46.83
65824;SHT31;52585;47.566;19.056;2023-03-11T08:33:49;7.73;46.69
65824;SHT31;52585;47.566;19.056;2023-03-11T08:36:17;7.68;46.76
65824;SHT31;52585;47.566;19.056;2023-03-11T08:38:44;7.67;46.71
65824;SHT31;52585;47.566;19.056;2023-03-11T08:41:10;7.67;46.91
65824;SHT31;52585;47.566;19.056;2023-03-11T08:43:37;7.69;46.85
65824;SHT31;52585;47.566;19.056;2023-03-11T08:46:03;7.73;47.10
65824;SHT31;52585;47.566;19.056;2023-03-11T08:48:31;7.76;46.76
65824;SHT31;52585;47.566;19.056;2023-03-11T08:50:57;7.80;46.89
65824;SHT31;52585;47.566;19.056;2023-03-11T08:53:23;7.82;46.71
65824;SHT31;52585;47.566;19.056;2023-03-11T08:55:50;7.84;46.45
65824;SHT31;52585;47.566;19.056;2023-03-11T08:58:17;7.84;46.17
65824;SHT31;52585;47.566;19.056;2023-03-11T09:00:44;7.85;46.41
65824;SHT31;52585;47.566;19.056;2023-03-11T09:03:11;7.84;46.37
65824;SHT31;52585;47.566;19.056;2023-03-11T09:05:37;7.85;46.67
65824;SHT31;52585;47.566;19.056;2023-03-11T09:08:03;7.86;46.83
65824;SHT31;52585;47.566;19.056;2023-03-11T09:10:29;7.85;46.77
65824;SHT31;52585;47.566;19.056;2023-03-11T09:12:55;7.85;46.73
65824;SHT31;52585;47.566;19.056;2023-03-11T09:15:20;7.86;46.53
65824;SHT31;52585;47.566;19.056;2023-03-11T09:17:46;7.83;46.20
65824;SHT31;52585;47.566;19.056;2023-03-11T09:20:12;7.81;46.28
65824;SHT31;52585;47.566;19.056;2023-03-11T09:22:39;7.81;46.31
65824;SHT31;52585;47.566;19.056;2023-03-11T09:25:05;7.79;46.38
65824;SHT31;52585;47.566;19.056;2023-03-11T09:27:32;7.79;46.65
65824;SHT31;52585;47.566;19.056;2023-03-11T09:29:58;7.80;46.61
65824;SHT31;52585;47.566;19.056;2023-03-11T09:32:24;7.78;46.68
65824;SHT31;52585;47.566;19.056;2023-03-11T09:34:49;7.77;46.61
65824;SHT31;52585;47.566;19.056;2023-03-11T09:37:15;7.77;46.60
65824;SHT31;52585;47.566;19.056;2023-03-11T09:39:40;7.76;46.63
65824;SHT31;52585;47.566;19.056;2023-03-11T09:42:19;7.75;46.65
65824;SHT31;52585;47.566;19.056;2023-03-11T09:56:15;7.67;47.07
65824;SHT31;52585;47.566;19.056;2023-03-11T09:58:46;7.65;46.99
65824;SHT31;52585;47.566;19.056;2023-03-11T10:01:23;7.63;46.98
65824;SHT31;52585;47.566;19.056;2023-03-11T10:04:19;7.63;47.40
65824;SHT31;52585;47.566;19.056;2023-03-11T10:06:52;7.61;47.15
65824;SHT31;52585;47.566;19.056;2023-03-11T10:09:25;7.58;46.93
65824;SHT31;52585;47.566;19.056;2023-03-11T10:27:01;7.43;47.93
65824;SHT31;52585;47.566;19.056;2023-03-11T10:29:41;7.45;48.18
65824;SHT31;52585;47.566;19.056;2023-03-11T10:35:15;7.55;48.56
65824;SHT31;52585;47.566;19.056;2023-03-11T10:37:52;7.65;49.02
65824;SHT31;52585;47.566;19.056;2023-03-11T10:43:03;7.79;48.63
65824;SHT31;52585;47.566;19.056;2023-03-11T10:45:40;7.82;48.40
65824;SHT31;52585;47.566;19.056;2023-03-11T10:48:15;7.88;48.47
65824;SHT31;52585;47.566;19.056;2023-03-11T10:50:49;7.96;48.51
65824;SHT31;52585;47.566;19.056;2023-03-11T10:53:15;8.02;48.36
65824;SHT31;52585;47.566;19.056;2023-03-11T10:55:51;8.03;48.43
65824;SHT31;52585;47.566;19.056;2023-03-11T10:58:20;8.04;48.54
65824;SHT31;52585;47.566;19.056;2023-03-11T11:01:10;8.06;48.65
65824;SHT31;52585;47.566;19.056;2023-03-11T11:03:44;8.11;48.62
65824;SHT31;52585;47.566;19.056;2023-03-11T11:06:23;8.19;48.75
65824;SHT31;52585;47.566;19.056;2023-03-11T11:11:41;8.30;48.38
65824;SHT31;52585;47.566;19.056;2023-03-11T11:14:27;8.34;48.06
65824;SHT31;52585;47.566;19.056;2023-03-11T11:17:25;8.39;48.01
65824;SHT31;52585;47.566;19.056;2023-03-11T11:19:58;8.44;48.22
65824;SHT31;52585;47.566;19.056;2023-03-11T11:22:37;8.48;48.19
65824;SHT31;52585;47.566;19.056;2023-03-11T11:25:38;8.51;48.25
65824;SHT31;52585;47.566;19.056;2023-03-11T11:28:15;8.57;48.31
65824;SHT31;52585;47.566;19.056;2023-03-11T11:35:56;8.66;47.90
65824;SHT31;52585;47.566;19.056;2023-03-11T11:38:27;8.68;47.60
65824;SHT31;52585;47.566;19.056;2023-03-11T11:40:55;8.66;47.40
65824;SHT31;52585;47.566;19.056;2023-03-11T11:43:47;8.64;47.29
65824;SHT31;52585;47.566;19.056;2023-03-11T11:46:26;8.66;47.21
65824;SHT31;52585;47.566;19.056;2023-03-11T11:49:05;8.67;47.02
65824;SHT31;52585;47.566;19.056;2023-03-11T11:51:56;8.65;47.05
65824;SHT31;52585;47.566;19.056;2023-03-11T11:54:38;8.65;46.70
65824;SHT31;52585;47.566;19.056;2023-03-11T11:57:15;8.66;46.80
65824;SHT31;52585;47.566;19.056;2023-03-11T11:59:44;8.65;46.78
65824;SHT31;52585;47.566;19.056;2023-03-11T12:02:35;8.65;46.62
65824;SHT31;52585;47.566;19.056;2023-03-11T12:05:22;8.63;46.51
65824;SHT31;52585;47.566;19.056;2023-03-11T12:11:07;8.60;46.52
65824;SHT31;52585;47.566;19.056;2023-03-11T12:14:00;8.60;46.64
65824;SHT31;52585;47.566;19.056;2023-03-11T12:25:19;8.72;46.41
65824;SHT31;52585;47.566;19.056;2023-03-11T12:28:21;8.71;46.42
65824;SHT31;52585;47.566;19.056;2023-03-11T12:30:54;8.73;46.40
65824;SHT31;52585;47.566;19.056;2023-03-11T12:36:28;8.82;46.22
65824;SHT31;52585;47.566;19.056;2023-03-11T12:39:02;8.84;45.68
65824;SHT31;52585;47.566;19.056;2023-03-11T12:49:29;8.93;45.69
65824;SHT31;52585;47.566;19.056;2023-03-11T12:54:36;9.05;45.39
65824;SHT31;52585;47.566;19.056;2023-03-11T12:57:39;9.03;45.04
65824;SHT31;52585;47.566;19.056;2023-03-11T13:09:30;8.87;44.85
65824;SHT31;52585;47.566;19.056;2023-03-11T13:11:56;8.84;45.07
65824;SHT31;52585;47.566;19.056;2023-03-11T13:17:18;8.78;45.04
65824;SHT31;52585;47.566;19.056;2023-03-11T13:19:57;8.75;45.27
65824;SHT31;52585;47.566;19.056;2023-03-11T13:25:38;8.73;45.02
65824;SHT31;52585;47.566;19.056;2023-03-11T13:34:45;8.61;45.18
65824;SHT31;52585;47.566;19.056;2023-03-11T13:40:32;8.57;45.17
65824;SHT31;52585;47.566;19.056;2023-03-11T13:43:08;8.54;45.21
65824;SHT31;52585;47.566;19.056;2023-03-11T13:45:50;8.50;45.27
65824;SHT31;52585;47.566;19.056;2023-03-11T13:48:42;8.49;45.54
65824;SHT31;52585;47.566;19.056;2023-03-11T13:56:58;8.41;45.63
65824;SHT31;52585;47.566;19.056;2023-03-11T14:01:59;8.38;45.49
65824;SHT31;52585;47.566;19.056;2023-03-11T14:04:32;8.35;45.31
65824;SHT31;52585;47.566;19.056;2023-03-11T14:07:18;8.32;45.32
65824;SHT31;52585;47.566;19.056;2023-03-11T14:10:08;8.30;45.28
65824;SHT31;52585;47.566;19.056;2023-03-11T14:15:43;8.24;45.00
65824;SHT31;52585;47.566;19.056;2023-03-11T14:18:33;8.23;45.14
65824;SHT31;52585;47.566;19.056;2023-03-11T14:21:20;8.22;45.11
65824;SHT31;52585;47.566;19.056;2023-03-11T14:23:48;8.19;44.80
65824;SHT31;52585;47.566;19.056;2023-03-11T14:26:17;8.14;44.81
65824;SHT31;52585;47.566;19.056;2023-03-11T14:29:09;8.09;44.84
65824;SHT31;52585;47.566;19.056;2023-03-11T14:31:43;8.07;45.21
65824;SHT31;52585;47.566;19.056;2023-03-11T14:34:15;8.05;45.13
65824;SHT31;52585;47.566;19.056;2023-03-11T14:45:05;7.90;45.33
65824;SHT31;52585;47.566;19.056;2023-03-11T14:47:40;7.92;45.70
65824;SHT31;52585;47.566;19.056;2023-03-11T14:50:30;7.91;45.53
65824;SHT31;52585;47.566;19.056;2023-03-11T14:55:42;7.89;45.56
65824;SHT31;52585;47.566;19.056;2023-03-11T15:00:45;7.86;45.54
65824;SHT31;52585;47.566;19.056;2023-03-11T15:03:28;7.83;45.57
65824;SHT31;52585;47.566;19.056;2023-03-11T15:06:11;7.80;45.71
65824;SHT31;52585;47.566;19.056;2023-03-11T15:11:24;7.78;45.56
65824;SHT31;52585;47.566;19.056;2023-03-11T15:13:53;7.78;45.54
65824;SHT31;52585;47.566;19.056;2023-03-11T15:16:40;7.79;45.65
65824;SHT31;52585;47.566;19.056;2023-03-11T15:19:22;7.81;45.82
65824;SHT31;52585;47.566;19.056;2023-03-11T15:21:56;7.84;45.78
65824;SHT31;52585;47.566;19.056;2023-03-11T15:24:50;7.87;45.46
65824;SHT31;52585;47.566;19.056;2023-03-11T15:27:56;7.90;45.56
65824;SHT31;52585;47.566;19.056;2023-03-11T15:30:19;7.92;45.62
65824;SHT31;52585;47.566;19.056;2023-03-11T15:32:55;7.94;45.60
65824;SHT31;52585;47.566;19.056;2023-03-11T15:35:29;7.97;45.70
65824;SHT31;52585;47.566;19.056;2023-03-11T15:38:29;7.99;45.56
65824;SHT31;52585;47.566;19.056;2023-03-11T15:40:54;7.98;45.38
65824;SHT31;52585;47.566;19.056;2023-03-11T15:46:19;7.95;45.37
65824;SHT31;52585;47.566;19.056;2023-03-11T15:48:45;7.90;45.22
65824;SHT31;52585;47.566;19.056;2023-03-11T15:51:17;7.87;45.27
65824;SHT31;52585;47.566;19.056;2023-03-11T15:53:44;7.84;45.23
65824;SHT31;52585;47.566;19.056;2023-03-11T15:56:11;7.79;45.09
65824;SHT31;52585;47.566;19.056;2023-03-11T15:58:47;7.76;45.06
65824;SHT31;52585;47.566;19.056;2023-03-11T16:01:13;7.74;45.11
65824;SHT31;52585;47.566;19.056;2023-03-11T16:03:42;7.73;44.91
65824;SHT31;52585;47.566;19.056;2023-03-11T16:06:08;7.70;44.74
65824;SHT31;52585;47.566;19.056;2023-03-11T16:08:33;7.69;44.82
65824;SHT31;52585;47.566;19.056;2023-03-11T16:10:59;7.66;44.91
65824;SHT31;52585;47.566;19.056;2023-03-11T16:13:25;7.65;45.10
65824;SHT31;52585;47.566;19.056;2023-03-11T16:15:51;7.64;44.56
65824;SHT31;52585;47.566;19.056;2023-03-11T16:18:17;7.63;44.39
65824;SHT31;52585;47.566;19.056;2023-03-11T16:20:47;7.60;44.50
65824;SHT31;52585;47.566;19.056;2023-03-11T16:23:34;7.57;44.27
65824;SHT31;52585;47.566;19.056;2023-03-11T16:26:02;7.53;44.29
65824;SHT31;52585;47.566;19.056;2023-03-11T16:28:30;7.49;44.19
65824;SHT31;52585;47.566;19.056;2023-03-11T16:30:56;7.46;44.31
65824;SHT31;52585;47.566;19.056;2023-03-11T16:33:22;7.46;44.28
65824;SHT31;52585;47.566;19.056;2023-03-11T16:35:47;7.45;44.11
65824;SHT31;52585;47.566;19.056;2023-03-11T16:38:14;7.43;44.12
65824;SHT31;52585;47.566;19.056;2023-03-11T16:40:41;7.40;44.03
65824;SHT31;52585;47.566;19.056;2023-03-11T16:43:08;7.37;44.13
65824;SHT31;52585;47.566;19.056;2023-03-11T16:45:39;7.32;43.68
65824;SHT31;52585;47.566;19.056;2023-03-11T16:48:06;7.30;43.90
65824;SHT31;52585;47.566;19.056;2023-03-11T16:50:33;7.29;44.12
65824;SHT31;52585;47.566;19.056;2023-03-11T16:52:59;7.28;44.10
65824;SHT31;52585;47.566;19.056;2023-03-11T16:55:25;7.27;44.35
65824;SHT31;52585;47.566;19.056;2023-03-11T16:57:52;7.25;44.41
65824;SHT31;52585;47.566;19.056;2023-03-11T17:00:20;7.22;44.58
65824;SHT31;52585;47.566;19.056;2023-03-11T17:02:47;7.20;44.73
65824;SHT31;52585;47.566;19.056;2023-03-11T17:05:13;7.18;44.57
65824;SHT31;52585;47.566;19.056;2023-03-11T17:07:39;7.20;44.63
65824;SHT31;52585;47.566;19.056;2023-03-11T17:10:06;7.17;44.42
65824;SHT31;52585;47.566;19.056;2023-03-11T17:12:35;7.12;44.36
65824;SHT31;52585;47.566;19.056;2023-03-11T17:15:03;7.11;44.56
65824;SHT31;52585;47.566;19.056;2023-03-11T17:17:34;7.05;44.41
65824;SHT31;52585;47.566;19.056;2023-03-11T17:20:00;7.02;44.46
65824;SHT31;52585;47.566;19.056;2023-03-11T17:22:27;7.01;44.53
65824;SHT31;52585;47.566;19.056;2023-03-11T17:24:53;7.01;44.56
65824;SHT31;52585;47.566;19.056;2023-03-11T17:27:19;6.99;44.70
65824;SHT31;52585;47.566;19.056;2023-03-11T17:29:45;6.95;44.75
65824;SHT31;52585;47.566;19.056;2023-03-11T17:32:11;6.93;44.90
65824;SHT31;52585;47.566;19.056;2023-03-11T17:34:41;6.89;45.18
65824;SHT31;52585;47.566;19.056;2023-03-11T17:37:09;6.84;45.27
65824;SHT31;52585;47.566;19.056;2023-03-11T17:39:35;6.82;45.35
65824;SHT31;52585;47.566;19.056;2023-03-11T17:42:03;6.84;45.41
65824;SHT31;52585;47.566;19.056;2023-03-11T17:44:29;6.81;45.47
65824;SHT31;52585;47.566;19.056;2023-03-11T17:46:55;6.80;45.64
65824;SHT31;52585;47.566;19.056;2023-03-11T17:49:21;6.79;45.67
65824;SHT31;52585;47.566;19.056;2023-03-11T17:51:48;6.76;45.83
65824;SHT31;52585;47.566;19.056;2023-03-11T17:54:14;6.76;45.93
65824;SHT31;52585;47.566;19.056;2023-03-11T17:56:40;6.72;46.03
65824;SHT31;52585;47.566;19.056;2023-03-11T17:59:06;6.72;46.27
65824;SHT31;52585;47.566;19.056;2023-03-11T18:01:35;6.69;46.18
65824;SHT31;52585;47.566;19.056;2023-03-11T18:04:05;6.67;46.25